Time;durP1;ratioP1;P1;durP2;ratioP2;P2;SDS_P1;SDS_P2;PMS_P1;PMS_P2;Temp;Humidity;BMP_temperature;BMP_pressure;BME280_temperature;BME280_humidity;BME280_pressure;Samples;Min_cycle;Max_cycle;Signal;HPM_P1;HPM_P2
2021/10/29 00:02:14;;;;;;;219.82;105.80;;;154.50;2252.80;;;;;;4896492;29;20037;-55
2021/10/29 00:04:40;;;;;;;76.28;47.13;;;154.40;2252.80;;;;;;4896538;29;20031;-56
2021/10/29 00:07:05;;;;;;;123.85;64.72;;;154.40;2252.80;;;;;;4896451;29;20074;-56
2021/10/29 00:09:32;;;;;;;168.27;93.53;;;154.40;2252.80;;;;;;4896487;29;20041;-59
2021/10/29 00:11:59;;;;;;;87.95;51.88;;;154.40;2252.80;;;;;;4896414;29;20037;-55
2021/10/29 00:14:25;;;;;;;77.63;47.88;;;154.50;2252.80;;;;;;4896271;29;20043;-61
2021/10/29 00:16:52;;;;;;;115.18;67.88;;;154.50;2252.80;;;;;;4896474;29;20037;-63
2021/10/29 00:19:18;;;;;;;106.97;62.33;;;154.40;2252.80;;;;;;4896153;29;20064;-56
2021/10/29 00:21:44;;;;;;;57.00;39.97;;;154.20;2252.80;;;;;;4896202;29;20399;-57
2021/10/29 00:24:10;;;;;;;54.38;37.72;;;154.30;2252.80;;;;;;4896193;29;20033;-55
2021/10/29 00:26:36;;;;;;;79.32;50.65;;;154.30;2252.80;;;;;;4896109;29;20058;-55
2021/10/29 00:29:02;;;;;;;45.20;29.83;;;154.30;2252.80;;;;;;4879182;29;20040;-55
2021/10/29 00:31:28;;;;;;;45.00;30.90;;;154.30;2252.80;;;;;;4895981;29;20151;-54
2021/10/29 00:33:55;;;;;;;62.00;40.28;;;154.30;2252.80;;;;;;4895943;29;20040;-55
2021/10/29 00:36:20;;;;;;;57.15;36.85;;;154.40;2252.80;;;;;;4896041;29;20027;-59
2021/10/29 00:38:46;;;;;;;69.20;44.95;;;154.20;2252.80;;;;;;4895507;29;20119;-54
2021/10/29 00:41:12;;;;;;;66.90;42.72;;;154.20;2252.80;;;;;;4896011;29;20032;-54
2021/10/29 00:43:38;;;;;;;105.40;64.95;;;154.30;2252.80;;;;;;4895751;29;20032;-54
2021/10/29 00:46:04;;;;;;;89.60;55.75;;;154.20;2252.80;;;;;;4895642;29;20032;-55
2021/10/29 00:48:29;;;;;;;76.53;51.45;;;154.20;2252.80;;;;;;4895561;29;20135;-54
2021/10/29 00:50:55;;;;;;;78.38;53.28;;;154.20;2252.80;;;;;;4895725;29;20033;-62
2021/10/29 00:53:23;;;;;;;78.35;52.97;;;154.10;2252.80;;;;;;4895815;29;20029;-59
2021/10/29 00:55:49;;;;;;;54.75;39.72;;;154.20;2252.80;;;;;;4895748;29;20028;-57
2021/10/29 00:58:15;;;;;;;54.85;39.58;;;154.20;2252.80;;;;;;4895212;29;20032;-60
2021/10/29 01:00:41;;;;;;;52.42;36.22;;;154.20;2252.80;;;;;;4895542;29;20091;-59
2021/10/29 01:03:07;;;;;;;64.53;46.92;;;154.20;2252.80;;;;;;4895420;29;20108;-55
2021/10/29 01:05:33;;;;;;;68.25;48.63;;;154.10;2252.80;;;;;;4895600;29;20170;-58
2021/10/29 01:07:59;;;;;;;77.50;52.72;;;154.10;2252.80;;;;;;4895473;29;20136;-54
2021/10/29 01:10:31;;;;;;;59.45;39.80;;;154.00;2252.80;;;;;;4895246;29;20037;-54
2021/10/29 01:12:58;;;;;;;58.97;39.45;;;154.00;2252.80;;;;;;4895290;29;20035;-63
2021/10/29 01:15:23;;;;;;;55.95;37.40;;;154.00;2252.80;;;;;;4895420;29;20036;-55
2021/10/29 01:17:49;;;;;;;53.13;34.72;;;154.00;2252.80;;;;;;4895536;29;20032;-56
2021/10/29 01:20:20;;;;;;;54.95;35.30;;;153.90;2252.80;;;;;;4894944;29;20475;-54
2021/10/29 01:22:47;;;;;;;63.60;42.92;;;154.00;2252.80;;;;;;4895065;29;20180;-54
2021/10/29 01:25:13;;;;;;;139.05;91.57;;;154.00;2252.80;;;;;;4895304;29;20031;-61
2021/10/29 01:27:39;;;;;;;142.15;92.03;;;153.90;2252.80;;;;;;4895211;29;20029;-54
2021/10/29 01:30:07;;;;;;;64.95;39.22;;;153.90;2252.80;;;;;;4895034;29;20047;-56
2021/10/29 01:32:32;;;;;;;66.25;41.13;;;153.90;2252.80;;;;;;4895358;29;20125;-56
2021/10/29 01:34:59;;;;;;;68.45;48.45;;;153.70;2252.80;;;;;;4895236;29;20036;-54
2021/10/29 01:37:26;;;;;;;86.15;58.92;;;128.90;2252.80;;;;;;4894862;29;20040;-56
2021/10/29 01:39:52;;;;;;;54.10;39.15;;;128.70;2252.80;;;;;;4895154;29;20060;-54
2021/10/29 01:42:18;;;;;;;60.92;38.28;;;128.70;2252.80;;;;;;4895137;29;20064;-59
2021/10/29 01:44:45;;;;;;;53.33;34.85;;;128.60;2252.80;;;;;;4878028;29;20431;-60
2021/10/29 01:47:10;;;;;;;80.55;57.13;;;128.50;2252.80;;;;;;4895141;29;20065;-55
2021/10/29 01:49:39;;;;;;;68.57;43.78;;;128.60;2252.80;;;;;;4895837;29;20072;-59
2021/10/29 01:52:06;;;;;;;114.82;74.53;;;128.70;2252.80;;;;;;4898991;29;20033;-62
2021/10/29 01:54:32;;;;;;;67.07;59.05;;;128.70;2252.80;;;;;;4898952;29;20059;-54
2021/10/29 01:56:58;;;;;;;63.95;42.78;;;128.80;2252.80;;;;;;4898677;29;20103;-57
2021/10/29 01:59:26;;;;;;;85.70;51.97;;;128.70;2252.80;;;;;;4898330;29;20052;-54
2021/10/29 02:01:52;;;;;;;54.67;36.55;;;128.70;2252.80;;;;;;4898828;29;20032;-60
2021/10/29 02:04:19;;;;;;;41.70;31.17;;;128.70;2252.80;;;;;;4898746;29;20057;-54
2021/10/29 02:06:45;;;;;;;43.30;30.08;;;128.60;2252.80;;;;;;4898605;29;20075;-64
2021/10/29 02:09:11;;;;;;;60.45;38.42;;;128.60;2252.80;;;;;;4898726;29;20491;-56
2021/10/29 02:11:37;;;;;;;45.17;32.50;;;128.70;2252.80;;;;;;4898693;29;20025;-57
2021/10/29 02:14:03;;;;;;;42.97;30.58;;;128.70;2252.80;;;;;;4898620;29;20036;-60
2021/10/29 02:16:29;;;;;;;87.28;53.20;;;128.70;2252.80;;;;;;4898555;29;20029;-63
2021/10/29 02:18:54;;;;;;;54.75;36.90;;;128.70;2252.80;;;;;;4898328;29;20036;-63
2021/10/29 02:21:20;;;;;;;55.72;35.97;;;128.70;2252.80;;;;;;4898539;29;20020;-61
2021/10/29 02:23:46;;;;;;;61.25;38.42;;;128.60;2252.80;;;;;;4898256;29;20502;-54
2021/10/29 02:26:12;;;;;;;50.97;32.63;;;128.60;2252.80;;;;;;4898417;29;20460;-57
2021/10/29 02:28:38;;;;;;;44.67;31.65;;;128.50;2252.80;;;;;;4898257;29;20052;-57
2021/10/29 02:31:03;;;;;;;37.00;28.63;;;128.40;2252.80;;;;;;4898247;29;20025;-55
2021/10/29 02:33:29;;;;;;;40.25;29.30;;;128.50;2252.80;;;;;;4898191;29;20035;-58
2021/10/29 02:35:55;;;;;;;41.75;28.95;;;128.50;2252.80;;;;;;4897965;29;20391;-58
2021/10/29 02:38:21;;;;;;;43.17;29.48;;;128.60;2252.80;;;;;;4898175;29;20035;-54
2021/10/29 02:40:48;;;;;;;35.50;25.55;;;128.60;2252.80;;;;;;4897977;29;20111;-54
2021/10/29 02:43:13;;;;;;;33.47;24.73;;;128.50;2252.80;;;;;;4881053;29;20407;-55
2021/10/29 02:45:39;;;;;;;40.25;27.08;;;128.50;2252.80;;;;;;4898207;29;20032;-54
2021/10/29 02:48:05;;;;;;;35.40;25.73;;;128.60;2252.80;;;;;;4897943;29;20062;-63
2021/10/29 02:50:31;;;;;;;36.75;27.10;;;128.60;2252.80;;;;;;4897908;29;20028;-63
2021/10/29 02:52:57;;;;;;;38.00;27.40;;;128.60;2252.80;;;;;;4897655;29;20440;-63
2021/10/29 02:55:23;;;;;;;43.17;27.95;;;128.60;2252.80;;;;;;4897829;29;20021;-63
2021/10/29 02:57:49;;;;;;;39.95;27.33;;;128.50;2252.80;;;;;;4897998;29;20021;-64
2021/10/29 03:00:17;;;;;;;40.03;26.48;;;128.40;2252.80;;;;;;4897129;29;20080;-60
2021/10/29 03:02:44;;;;;;;40.50;27.20;;;128.40;2252.80;;;;;;4897759;29;20395;-60
2021/10/29 03:05:12;;;;;;;39.22;26.85;;;128.10;2252.80;;;;;;4897736;29;20075;-64
2021/10/29 03:07:38;;;;;;;36.53;27.25;;;128.10;2252.80;;;;;;4897605;29;20044;-65
2021/10/29 03:10:06;;;;;;;38.65;28.13;;;128.10;2252.80;;;;;;4897319;29;20392;-61
2021/10/29 03:12:33;;;;;;;40.60;26.38;;;128.00;2252.80;;;;;;4897830;29;20037;-57
2021/10/29 03:14:59;;;;;;;43.63;31.88;;;128.10;2252.80;;;;;;4897466;29;20037;-61
2021/10/29 03:17:24;;;;;;;44.40;28.52;;;128.20;2252.80;;;;;;4897360;29;20037;-63
2021/10/29 03:19:50;;;;;;;42.53;27.67;;;128.30;2252.80;;;;;;4897462;29;20112;-64
2021/10/29 03:22:17;;;;;;;41.33;27.20;;;128.30;2252.80;;;;;;4897238;29;20479;-65
2021/10/29 03:24:42;;;;;;;41.47;27.80;;;128.30;2252.80;;;;;;4897376;29;20036;-59
2021/10/29 03:27:08;;;;;;;45.72;29.55;;;128.00;2252.80;;;;;;4897100;29;20519;-65
2021/10/29 03:29:34;;;;;;;46.42;30.75;;;103.30;2227.20;;;;;;4897085;29;20046;-63
2021/10/29 03:32:00;;;;;;;42.75;28.33;;;103.20;2227.20;;;;;;4897388;29;20033;-65
2021/10/29 03:34:26;;;;;;;46.45;28.05;;;103.00;2227.20;;;;;;4896967;29;20036;-64
2021/10/29 03:36:51;;;;;;;40.90;25.10;;;103.00;2227.20;;;;;;4897312;29;20036;-63
2021/10/29 03:41:53;;;;;;;43.95;26.52;;;103.00;2227.20;;;;;;4896885;29;20035;-64
2021/10/29 03:44:57;;;;;;;40.67;26.17;;;102.90;2227.20;;;;;;4897195;29;20065;-65
2021/10/29 03:47:12;;;;;;;38.72;25.77;;;102.80;2227.20;;;;;;4893157;29;20040;-65
2021/10/29 03:49:48;;;;;;;41.15;26.70;;;102.80;2227.20;;;;;;4896879;29;20444;-64
2021/10/29 03:52:24;;;;;;;44.00;27.65;;;102.90;2227.20;;;;;;4896640;29;20143;-61
2021/10/29 03:54:54;;;;;;;41.03;27.88;;;102.90;2227.20;;;;;;4896771;29;20033;-64
2021/10/29 03:59:49;;;;;;;47.30;29.17;;;103.10;2227.20;;;;;;4896557;29;20399;-64
2021/10/29 04:02:15;;;;;;;47.65;32.05;;;103.10;2227.20;;;;;;4896500;29;20029;-55
2021/10/29 04:04:40;;;;;;;101.82;78.25;;;103.10;2227.20;;;;;;4896475;29;20089;-62
2021/10/29 04:07:06;;;;;;;74.50;57.38;;;103.10;2227.20;;;;;;4896634;29;20390;-64
2021/10/29 04:09:32;;;;;;;42.17;29.30;;;103.20;2227.20;;;;;;4896457;29;20048;-60
2021/10/29 04:11:57;;;;;;;47.63;32.38;;;103.20;2227.20;;;;;;4895843;29;20037;-59
2021/10/29 04:14:28;;;;;;;47.30;31.75;;;103.00;2227.20;;;;;;4896423;29;20032;-56
2021/10/29 04:16:55;;;;;;;46.13;30.85;;;103.00;2227.20;;;;;;4896293;29;20033;-56
2021/10/29 04:19:21;;;;;;;50.28;33.40;;;103.00;2227.20;;;;;;4896266;29;20025;-63
2021/10/29 04:21:47;;;;;;;78.43;48.13;;;103.10;2227.20;;;;;;4896277;29;20044;-58
2021/10/29 04:24:12;;;;;;;108.68;67.55;;;103.00;2227.20;;;;;;4896405;29;20036;-57
2021/10/29 04:26:39;;;;;;;90.50;56.97;;;103.00;2227.20;;;;;;4896482;29;20033;-55
2021/10/29 04:29:17;;;;;;;55.75;35.88;;;103.10;2227.20;;;;;;4895863;29;20517;-64
2021/10/29 04:31:49;;;;;;;44.05;30.75;;;103.00;2227.20;;;;;;4896040;29;20047;-57
2021/10/29 04:34:23;;;;;;;54.70;35.15;;;102.90;2227.20;;;;;;4895923;29;20024;-60
2021/10/29 04:36:50;;;;;;;86.80;48.53;;;103.00;2227.20;;;;;;4896091;29;20024;-63
2021/10/29 04:39:16;;;;;;;147.57;83.78;;;103.10;2227.20;;;;;;4895832;29;20065;-56
2021/10/29 04:41:44;;;;;;;114.45;71.00;;;103.10;2227.20;;;;;;4895996;29;20388;-57
2021/10/29 04:44:10;;;;;;;60.95;36.50;;;103.20;2227.20;;;;;;4896015;29;20092;-56
2021/10/29 04:46:36;;;;;;;56.13;38.85;;;103.20;2227.20;;;;;;4895590;29;20369;-61
2021/10/29 04:49:02;;;;;;;57.95;39.65;;;103.20;2227.20;;;;;;4895798;29;20115;-62
2021/10/29 04:51:28;;;;;;;49.65;36.38;;;128.00;2252.80;;;;;;4895130;29;20040;-61
2021/10/29 04:53:56;;;;;;;48.35;35.50;;;103.30;2227.20;;;;;;4895754;29;20043;-58
2021/10/29 04:56:22;;;;;;;48.75;30.55;;;103.20;2227.20;;;;;;4895728;29;20032;-63
2021/10/29 04:58:48;;;;;;;47.75;29.08;;;103.20;2227.20;;;;;;4895348;29;20092;-63
2021/10/29 05:01:14;;;;;;;43.67;26.63;;;102.90;2227.20;;;;;;4895454;29;20033;-62
2021/10/29 05:03:41;;;;;;;40.35;27.23;;;102.80;2227.20;;;;;;4895579;29;20032;-61
2021/10/29 05:06:06;;;;;;;47.22;30.17;;;102.70;2227.20;;;;;;4895723;29;20100;-63
2021/10/29 05:08:32;;;;;;;40.05;26.13;;;102.70;2227.20;;;;;;4895487;29;20045;-63
2021/10/29 05:10:58;;;;;;;41.78;29.75;;;102.60;2227.20;;;;;;4895470;29;20039;-61
2021/10/29 05:13:24;;;;;;;38.25;25.52;;;102.70;2227.20;;;;;;4895322;29;20036;-60
2021/10/29 05:15:50;;;;;;;44.85;32.20;;;102.70;2227.20;;;;;;4895368;29;20112;-56
2021/10/29 05:18:16;;;;;;;47.50;33.15;;;102.50;2227.20;;;;;;4895128;29;20035;-58
2021/10/29 05:20:45;;;;;;;46.63;30.33;;;102.70;2227.20;;;;;;4895415;29;20036;-62
2021/10/29 05:23:11;;;;;;;50.25;30.00;;;102.70;2227.20;;;;;;4895286;29;20029;-61
2021/10/29 05:25:37;;;;;;;51.25;31.90;;;102.60;2227.20;;;;;;4895271;29;20033;-62
2021/10/29 05:28:04;;;;;;;56.45;38.10;;;102.70;2227.20;;;;;;4894827;29;20179;-59
2021/10/29 05:30:30;;;;;;;112.30;58.03;;;102.90;2227.20;;;;;;4895277;29;20041;-63
2021/10/29 05:32:55;;;;;;;70.70;38.10;;;103.00;2227.20;;;;;;4895046;29;20479;-57
2021/10/29 05:35:22;;;;;;;58.20;36.92;;;103.10;2227.20;;;;;;4895056;29;20035;-60
2021/10/29 05:37:47;;;;;;;41.97;29.27;;;103.20;2227.20;;;;;;4894948;29;20024;-59
2021/10/29 05:40:13;;;;;;;72.38;47.40;;;103.10;2227.20;;;;;;4894931;29;20483;-60
2021/10/29 05:42:39;;;;;;;65.20;43.30;;;103.10;2227.20;;;;;;4895418;29;20361;-60
2021/10/29 05:45:08;;;;;;;112.88;66.90;;;103.10;2227.20;;;;;;4895041;29;20097;-59
2021/10/29 05:47:34;;;;;;;83.15;48.50;;;128.00;2252.80;;;;;;4894763;29;20039;-60
2021/10/29 05:50:01;;;;;;;59.00;36.30;;;128.10;2252.80;;;;;;4894983;29;20032;-59
2021/10/29 05:52:29;;;;;;;54.03;35.13;;;128.20;2252.80;;;;;;4894839;29;20052;-59
2021/10/29 05:57:23;;;;;;;131.70;75.75;;;128.40;2252.80;;;;;;4894980;29;20021;-59
2021/10/29 05:59:50;;;;;;;95.80;58.13;;;128.50;2252.80;;;;;;4894435;29;20045;-59
2021/10/29 06:02:16;;;;;;;98.07;58.70;;;128.50;2252.80;;;;;;4894604;29;20092;-59
2021/10/29 06:04:42;;;;;;;84.70;51.70;;;128.60;2252.80;;;;;;4895033;29;20041;-60
2021/10/29 06:07:08;;;;;;;61.88;38.25;;;128.60;2252.80;;;;;;4894963;29;20373;-59
2021/10/29 06:09:34;;;;;;;53.42;35.75;;;153.80;2252.80;;;;;;4894557;29;20500;-59
2021/10/29 06:12:00;;;;;;;45.08;28.77;;;128.40;2252.80;;;;;;4894899;29;20488;-59
2021/10/29 06:14:27;;;;;;;44.20;27.70;;;128.10;2252.80;;;;;;4894684;29;20468;-59
2021/10/29 06:16:56;;;;;;;42.83;30.33;;;128.00;2252.80;;;;;;4894713;29;20104;-59
2021/10/29 06:19:22;;;;;;;46.03;30.20;;;128.00;2252.80;;;;;;4894917;29;20424;-59
2021/10/29 06:24:20;;;;;;;47.22;29.38;;;128.20;2252.80;;;;;;4894905;29;20033;-60
2021/10/29 06:26:51;;;;;;;51.22;33.60;;;128.40;2252.80;;;;;;4894444;29;20033;-59
2021/10/29 06:29:17;;;;;;;44.92;33.92;;;128.60;2252.80;;;;;;4894259;29;20123;-60
2021/10/29 06:31:43;;;;;;;181.95;121.80;;;128.90;2252.80;;;;;;4894545;29;20045;-60
2021/10/29 06:34:10;;;;;;;194.20;132.50;;;153.60;2252.80;;;;;;4894618;29;20036;-60
2021/10/29 06:36:37;;;;;;;217.70;137.35;;;128.80;2252.80;;;;;;4897111;29;20060;-59
2021/10/29 06:39:04;;;;;;;113.75;75.53;;;153.60;2252.80;;;;;;4898258;29;20388;-59
2021/10/29 06:41:30;;;;;;;65.70;43.53;;;153.80;2252.80;;;;;;4898104;29;20040;-60
2021/10/29 06:59:56;;;;;;;39.42;26.08;;;154.50;2252.80;;;;;;4897649;29;20055;-60
2021/10/29 07:40:19;;;;;;;45.83;37.63;;;435.20;2355.20;;;;;;4839169;29;20524;-58
2021/10/29 07:43:00;;;;;;;51.13;42.15;;;461.10;2355.20;;;;;;4839174;29;20034;-59
2021/10/29 07:45:27;;;;;;;61.35;48.10;;;461.70;2227.20;;;;;;4839286;29;20026;-59
2021/10/29 07:47:57;;;;;;;97.75;82.05;;;487.30;2099.20;;;;;;4838480;29;20483;-59
2021/10/29 07:50:25;;;;;;;54.72;44.00;;;537.80;1945.60;;;;;;4873352;29;20044;-59
2021/10/29 07:52:52;;;;;;;50.78;44.83;;;563.20;1868.80;;;;;;4897033;29;20067;-59
2021/10/29 07:55:22;;;;;;;72.95;64.88;;;563.50;1792.00;;;;;;4896678;29;20104;-61
2021/10/29 07:57:49;;;;;;;47.97;42.83;;;589.00;1715.20;;;;;;4896447;29;20103;-61
2021/10/29 08:00:19;;;;;;;48.72;43.42;;;589.70;1638.40;;;;;;4896222;29;20049;-61
2021/10/29 08:02:47;;;;;;;48.78;43.70;;;614.60;1587.20;;;;;;4896646;29;20028;-61
2021/10/29 08:05:14;;;;;;;57.13;50.90;;;615.00;1536.00;;;;;;4896643;29;20543;-61
2021/10/29 08:07:40;;;;;;;55.17;49.80;;;614.80;1536.00;;;;;;4896502;29;20039;-61
2021/10/29 08:10:08;;;;;;;59.42;53.53;;;614.80;1536.00;;;;;;4896536;29;20039;-61
2021/10/29 08:12:34;;;;;;;53.25;47.85;;;615.20;1510.40;;;;;;4896350;29;20491;-61
2021/10/29 08:15:03;;;;;;;56.13;49.90;;;640.40;1459.20;;;;;;4896523;29;20052;-61
2021/10/29 08:17:32;;;;;;;152.88;136.73;;;640.70;1433.60;;;;;;4896535;29;20032;-61
2021/10/29 08:19:59;;;;;;;99.13;88.68;;;640.10;1459.20;;;;;;4896052;29;20032;-61
2021/10/29 08:22:25;;;;;;;95.00;85.25;;;640.40;1459.20;;;;;;4896171;29;20029;-61
2021/10/29 08:24:51;;;;;;;100.05;86.05;;;665.70;1433.60;;;;;;4896226;29;20457;-62
2021/10/29 08:27:17;;;;;;;85.13;75.80;;;640.90;1382.40;;;;;;4895988;29;20043;-61
2021/10/29 08:29:43;;;;;;;97.72;85.97;;;640.20;1433.60;;;;;;4896014;29;20040;-61
2021/10/29 08:32:10;;;;;;;101.45;90.18;;;614.90;1459.20;;;;;;4896250;29;20112;-62
2021/10/29 08:34:36;;;;;;;84.15;75.03;;;589.70;1510.40;;;;;;4896095;29;20032;-61
2021/10/29 08:37:04;;;;;;;72.50;65.07;;;589.70;1484.80;;;;;;4896141;29;20421;-61
2021/10/29 08:39:31;;;;;;;82.60;73.63;;;588.80;1536.00;;;;;;4896079;29;20032;-61
2021/10/29 08:41:57;;;;;;;96.07;85.93;;;588.80;1536.00;;;;;;4895796;29;20173;-62
2021/10/29 08:44:23;;;;;;;70.93;63.42;;;615.00;1433.60;;;;;;4895890;29;20036;-61
2021/10/29 08:46:50;;;;;;;70.55;63.30;;;614.40;1433.60;;;;;;4895932;29;20111;-61
2021/10/29 08:49:17;;;;;;;90.45;80.32;;;614.50;1484.80;;;;;;4895651;29;20041;-62
2021/10/29 08:51:44;;;;;;;81.68;73.22;;;640.30;1408.00;;;;;;4895634;29;20770;-61
2021/10/29 08:54:10;;;;;;;75.22;66.50;;;640.90;1356.80;;;;;;4895809;29;20160;-62
2021/10/29 08:56:36;;;;;;;70.57;63.20;;;640.70;1356.80;;;;;;4895594;29;20021;-61
2021/10/29 08:59:13;;;;;;;78.65;70.65;;;640.30;1382.40;;;;;;4895198;29;20051;-61
2021/10/29 09:01:58;;;;;;;82.45;74.00;;;665.90;1382.40;;;;;;4895605;29;20084;-61
2021/10/29 09:04:40;;;;;;;91.03;81.30;;;665.70;1382.40;;;;;;4895342;29;20518;-61
2021/10/29 09:07:19;;;;;;;83.25;73.57;;;640.60;1382.40;;;;;;4895450;29;20037;-62
2021/10/29 09:32:54;;;;;;;90.57;61.80;;;435.50;1894.40;;;;;;4895260;29;20101;-58
2021/10/29 09:35:21;;;;;;;96.13;66.88;;;435.20;1971.20;;;;;;4895159;29;20063;-58
2021/10/29 09:38:14;;;;;;;69.55;52.30;;;435.60;1945.60;;;;;;4895039;29;20024;-58
2021/10/29 09:40:53;;;;;;;76.45;51.30;;;435.60;1920.00;;;;;;4895120;29;20084;-58
2021/10/29 09:43:20;;;;;;;81.40;57.70;;;435.40;1945.60;;;;;;4895025;29;20035;-58
2021/10/29 09:45:51;;;;;;;78.43;44.75;;;435.30;1971.20;;;;;;4894961;29;20035;-58
2021/10/29 09:48:21;;;;;;;82.18;61.10;;;410.50;1996.80;;;;;;4894775;29;20067;-58
2021/10/29 09:50:51;;;;;;;36.90;28.13;;;410.40;1996.80;;;;;;4894806;29;20480;-58
2021/10/29 09:53:35;;;;;;;47.92;32.78;;;410.00;1996.80;;;;;;4894834;29;20020;-60
2021/10/29 09:58:55;;;;;;;49.83;35.03;;;410.10;2022.40;;;;;;4894885;29;20089;-60
2021/10/29 10:01:25;;;;;;;48.47;33.95;;;410.30;2048.00;;;;;;4895060;29;20029;-60
2021/10/29 10:03:53;;;;;;;38.80;30.15;;;410.30;2048.00;;;;;;4894786;29;20069;-58
2021/10/29 10:06:25;;;;;;;28.60;21.33;;;410.50;2022.40;;;;;;4894197;29;20052;-60
2021/10/29 10:08:58;;;;;;;68.47;44.10;;;410.40;1996.80;;;;;;4894999;29;20474;-59
2021/10/29 10:11:26;;;;;;;63.25;40.88;;;435.20;1971.20;;;;;;4897157;29;20092;-60
2021/10/29 10:13:56;;;;;;;116.38;61.75;;;435.50;1971.20;;;;;;4898694;29;20104;-58
2021/10/29 10:16:27;;;;;;;36.90;23.58;;;435.40;1945.60;;;;;;4898553;29;20505;-58
2021/10/29 10:18:55;;;;;;;29.48;20.77;;;435.30;1945.60;;;;;;4898487;29;20061;-58
2021/10/29 10:21:24;;;;;;;41.65;28.63;;;435.20;1971.20;;;;;;4898598;29;20029;-58
2021/10/29 10:23:53;;;;;;;54.22;33.33;;;435.30;2022.40;;;;;;4898516;29;20032;-58
2021/10/29 10:26:30;;;;;;;41.10;30.63;;;435.50;2022.40;;;;;;4898331;29;20084;-58
2021/10/29 10:48:28;;;;;;;27.08;19.80;;;435.40;1996.80;;;;;;4858699;29;20045;-58
2021/10/29 10:51:18;;;;;;;37.65;27.33;;;435.40;1945.60;;;;;;4858452;29;20053;-58
2021/10/29 10:53:50;;;;;;;54.85;36.13;;;435.40;1945.60;;;;;;4858365;29;20041;-59
2021/10/29 10:56:46;;;;;;;35.67;23.38;;;435.30;1945.60;;;;;;4858409;29;20026;-58
2021/10/29 10:59:37;;;;;;;47.30;32.88;;;435.30;1945.60;;;;;;4858006;29;20041;-57
2021/10/29 11:05:10;;;;;;;35.50;26.25;;;435.50;1945.60;;;;;;4858212;29;20097;-58
2021/10/29 11:10:10;;;;;;;31.85;20.80;;;435.50;1920.00;;;;;;4858367;29;20511;-58
2021/10/29 11:12:42;;;;;;;46.35;27.70;;;435.50;1920.00;;;;;;4858370;29;20061;-58
2021/10/29 11:15:17;;;;;;;27.50;18.58;;;435.50;1920.00;;;;;;4858135;29;20449;-58
2021/10/29 11:17:55;;;;;;;29.85;22.15;;;435.60;1920.00;;;;;;4858109;29;20056;-58
2021/10/29 11:23:09;;;;;;;23.95;17.05;;;435.60;1894.40;;;;;;4857873;29;20061;-59
2021/10/29 11:25:50;;;;;;;27.73;19.02;;;435.60;1868.80;;;;;;4879543;29;20036;-58
2021/10/29 11:28:17;;;;;;;23.60;15.63;;;435.80;1843.20;;;;;;4897171;29;20037;-58
2021/10/29 11:30:44;;;;;;;31.85;21.13;;;435.80;1868.80;;;;;;4897321;29;20045;-58
2021/10/29 11:33:13;;;;;;;35.90;21.70;;;435.80;1868.80;;;;;;4897240;29;20064;-58
2021/10/29 11:35:41;;;;;;;25.20;15.20;;;435.90;1868.80;;;;;;4897370;29;20031;-58
2021/10/29 11:38:09;;;;;;;22.58;18.33;;;435.90;1868.80;;;;;;4896935;29;20029;-58
2021/10/29 11:40:35;;;;;;;29.10;19.60;;;435.70;1868.80;;;;;;4897041;29;20033;-58
2021/10/29 11:43:01;;;;;;;27.73;18.67;;;435.80;1868.80;;;;;;4897361;29;20035;-58
2021/10/29 11:45:36;;;;;;;43.65;26.05;;;435.70;1868.80;;;;;;4896887;29;20381;-58
2021/10/29 11:48:03;;;;;;;32.22;22.00;;;435.80;1868.80;;;;;;4896865;29;20416;-58
2021/10/29 11:50:29;;;;;;;58.08;35.88;;;435.90;1868.80;;;;;;4896930;29;20622;-58
2021/10/29 11:52:59;;;;;;;36.28;22.23;;;435.90;1894.40;;;;;;4896659;29;20079;-58
2021/10/29 11:55:39;;;;;;;34.40;24.63;;;436.00;1868.80;;;;;;4896722;29;20072;-58
2021/10/29 11:58:38;;;;;;;22.50;17.40;;;436.00;1868.80;;;;;;4896834;29;20349;-58
2021/10/29 12:01:14;;;;;;;24.40;18.80;;;436.00;1843.20;;;;;;4896600;29;20047;-58
2021/10/29 12:09:03;;;;;;;24.02;17.70;;;435.90;1868.80;;;;;;4896698;29;20455;-57
2021/10/29 12:11:30;;;;;;;21.15;17.00;;;436.10;1868.80;;;;;;4896707;29;20031;-58
2021/10/29 12:13:59;;;;;;;24.48;19.35;;;436.00;1868.80;;;;;;4896326;29;20037;-58
2021/10/29 12:16:27;;;;;;;52.33;30.30;;;436.00;1868.80;;;;;;4896345;29;20115;-58
2021/10/29 12:18:58;;;;;;;25.63;18.10;;;436.10;1868.80;;;;;;4896608;29;20032;-57
2021/10/29 12:21:28;;;;;;;26.73;19.20;;;460.80;1868.80;;;;;;4896221;29;20029;-59
2021/10/29 12:23:54;;;;;;;42.92;26.80;;;460.80;1868.80;;;;;;4896130;29;20072;-58
2021/10/29 12:26:28;;;;;;;51.47;29.60;;;460.80;1868.80;;;;;;4896377;29;20056;-58
2021/10/29 12:28:56;;;;;;;68.80;33.92;;;460.90;1894.40;;;;;;4895874;29;20543;-58
2021/10/29 13:03:10;;;;;;;30.80;21.20;;;461.10;1792.00;;;;;;4837600;29;20066;-58
2021/10/29 13:05:36;;;;;;;31.25;21.13;;;461.10;1817.60;;;;;;4836950;29;20142;-58
2021/10/29 13:08:18;;;;;;;30.75;23.35;;;460.90;1792.00;;;;;;4837012;29;20532;-58
2021/10/29 13:10:44;;;;;;;28.38;20.52;;;461.00;1792.00;;;;;;4836867;29;20038;-57
2021/10/29 13:13:21;;;;;;;39.95;27.75;;;461.00;1817.60;;;;;;4837078;29;20159;-58
2021/10/29 13:15:48;;;;;;;53.50;35.47;;;461.00;1817.60;;;;;;4836843;29;20041;-58
2021/10/29 13:18:20;;;;;;;43.47;30.40;;;461.00;1817.60;;;;;;4836812;29;20154;-58
2021/10/29 13:23:58;;;;;;;47.65;31.20;;;461.10;1792.00;;;;;;4836614;29;20106;-58
2021/10/29 13:58:29;;;;;;;40.65;25.33;;;461.20;1792.00;;;;;;4892437;29;20037;-62
2021/10/29 14:31:37;;;;;;;40.88;27.73;;;460.90;1868.80;;;;;;5062888;28;20071;-59
2021/10/29 14:34:16;;;;;;;39.10;30.35;;;460.80;1868.80;;;;;;5062675;28;20143;-60
2021/10/29 14:39:35;;;;;;;38.10;29.98;;;436.10;1843.20;;;;;;5062751;28;20120;-58
2021/10/29 14:42:22;;;;;;;47.78;30.38;;;436.10;1868.80;;;;;;5062242;28;20040;-59
2021/10/29 14:47:47;;;;;;;80.72;58.17;;;436.00;1894.40;;;;;;5042341;28;20044;-59
2021/10/29 15:25:12;;;;;;;755.83;597.35;;;409.80;2073.60;;;;;;5040181;28;20071;-59
2021/10/29 15:41:19;;;;;;;313.17;257.70;;;384.40;2150.40;;;;;;5050926;28;20805;-59
2021/10/29 15:46:19;;;;;;;257.63;196.50;;;384.20;2150.40;;;;;;5050787;28;20115;-58
2021/10/29 15:48:56;;;;;;;284.52;204.65;;;384.10;2176.00;;;;;;5049995;28;20057;-58
2021/10/29 15:51:22;;;;;;;325.73;241.90;;;384.10;2176.00;;;;;;5050592;28;20039;-57
2021/10/29 15:53:48;;;;;;;307.73;233.13;;;384.00;2176.00;;;;;;5049836;28;20044;-58
2021/10/29 15:56:22;;;;;;;127.63;93.22;;;384.00;2176.00;;;;;;5049723;28;20075;-60
2021/10/29 16:02:07;;;;;;;101.55;76.47;;;384.00;2150.40;;;;;;5049090;28;20623;-59
2021/10/29 16:17:51;;;;;;;123.28;79.00;;;358.90;2278.40;;;;;;5046667;28;20505;-58
2021/10/29 16:20:17;;;;;;;71.22;51.47;;;358.90;2278.40;;;;;;5045508;28;20025;-57
2021/10/29 16:22:42;;;;;;;69.03;48.00;;;358.90;2278.40;;;;;;5017522;28;20531;-58
2021/10/29 16:25:15;;;;;;;157.65;93.40;;;358.80;2304.00;;;;;;5019643;28;20029;-57
2021/10/29 16:30:12;;;;;;;174.82;110.55;;;358.60;2329.60;;;;;;5026347;28;20128;-55
2021/10/29 16:33:06;;;;;;;237.52;140.70;;;358.50;2329.60;;;;;;5028389;28;20486;-56
2021/10/29 16:35:38;;;;;;;222.30;143.95;;;333.70;2329.60;;;;;;5026189;28;20025;-55
2021/10/29 16:38:09;;;;;;;93.88;61.55;;;333.70;2329.60;;;;;;5028450;28;20032;-57
2021/10/29 16:40:36;;;;;;;133.00;96.88;;;333.60;2329.60;;;;;;5025849;28;20033;-55
2021/10/29 16:43:05;;;;;;;87.00;62.92;;;333.50;2329.60;;;;;;5028640;28;20057;-57
2021/10/29 16:45:31;;;;;;;106.00;81.68;;;333.40;2329.60;;;;;;5025804;28;20084;-55
2021/10/29 16:47:57;;;;;;;143.85;106.53;;;333.30;2329.60;;;;;;5028287;28;20783;-57
2021/10/29 16:50:23;;;;;;;73.30;60.20;;;333.30;2329.60;;;;;;5028596;28;20033;-58
2021/10/29 16:52:50;;;;;;;76.00;62.20;;;333.20;2329.60;;;;;;5028090;28;20491;-58
2021/10/29 16:55:16;;;;;;;86.25;71.65;;;333.10;2329.60;;;;;;5027944;28;20029;-56
2021/10/29 16:57:42;;;;;;;82.55;66.40;;;333.00;2329.60;;;;;;5018074;28;20017;-57
2021/10/29 17:00:10;;;;;;;73.80;58.08;;;333.00;2329.60;;;;;;5018809;28;20045;-58
2021/10/29 17:02:37;;;;;;;84.13;63.25;;;333.00;2329.60;;;;;;5018042;28;20018;-55